Aviation Digital Data Service (ADDS)

Output produced by METARs form (2337 UTC 18 August 2019)
found at http://www.aviationweather.gov/metar/data/
 
METAR text: BGGH 182250Z 18009KT 9999 FEW004 BKN095 09/07 Q1008
Conditions at: BGGH (GODTHAB (PORT) , GL) observed 2250 UTC 18 August 2019
Temperature: 9.0°C (48°F)
Dewpoint: 7.0°C (45°F) [RH = 87%]
Pressure (altimeter): 29.76 inches Hg (1008.0 mb)
Winds: from the S (180 degrees) at 10 MPH (9 knots; 4.6 m/s)
Visibility: 6 or more miles (10+ km)
Ceiling: 9500 feet AGL
Clouds: few clouds at 400 feet AGL
broken clouds at 9500 feet AGL
Weather: no significant weather observed at this time

METAR text: BGGH 182150Z 18011KT 9999 FEW004 SCT035 BKN100 09/07 Q1008
Conditions at: BGGH (GODTHAB (PORT) , GL) observed 2150 UTC 18 August 2019
Temperature: 9.0°C (48°F)
Dewpoint: 7.0°C (45°F) [RH = 87%]
Pressure (altimeter): 29.76 inches Hg (1008.0 mb)
Winds: from the S (180 degrees) at 13 MPH (11 knots; 5.7 m/s)
Visibility: 6 or more miles (10+ km)
Ceiling: 10000 feet AGL
Clouds: few clouds at 400 feet AGL
scattered clouds at 3500 feet AGL
broken clouds at 10000 feet AGL
Weather: no significant weather observed at this time

METAR text: BGGH 182050Z 20011KT 9999 FEW005 BKN020 BKN100 09/08 Q1008
Conditions at: BGGH (GODTHAB (PORT) , GL) observed 2050 UTC 18 August 2019
Temperature: 9.0°C (48°F)
Dewpoint: 8.0°C (46°F) [RH = 93%]
Pressure (altimeter): 29.76 inches Hg (1008.0 mb)
Winds: from the SSW (200 degrees) at 13 MPH (11 knots; 5.7 m/s)
Visibility: 6 or more miles (10+ km)
Ceiling: 2000 feet AGL
Clouds: few clouds at 500 feet AGL
broken clouds at 2000 feet AGL
broken clouds at 10000 feet AGL
Weather: no significant weather observed at this time

METAR text: BGGH 181950Z 20012KT 9999 FEW005 SCT020 BKN100 11/08 Q1008
Conditions at: BGGH (GODTHAB (PORT) , GL) observed 1950 UTC 18 August 2019
Temperature: 11.0°C (52°F)
Dewpoint: 8.0°C (46°F) [RH = 82%]
Pressure (altimeter): 29.76 inches Hg (1008.0 mb)
Winds: from the SSW (200 degrees) at 14 MPH (12 knots; 6.2 m/s)
Visibility: 6 or more miles (10+ km)
Ceiling: 10000 feet AGL
Clouds: few clouds at 500 feet AGL
scattered clouds at 2000 feet AGL
broken clouds at 10000 feet AGL
Weather: no significant weather observed at this time

METAR text: BGGH 181850Z 21007KT 170V240 9999 FEW005 BKN012 BKN020 09/08 Q1007
Conditions at: BGGH (GODTHAB (PORT) , GL) observed 1850 UTC 18 August 2019
Temperature: 9.0°C (48°F)
Dewpoint: 8.0°C (46°F) [RH = 93%]
Pressure (altimeter): 29.73 inches Hg (1007.0 mb)
Winds: from the SSW (210 degrees) at 8 MPH (7 knots; 3.6 m/s)
Visibility: 6 or more miles (10+ km)
Ceiling: 1200 feet AGL
Clouds: few clouds at 500 feet AGL
broken clouds at 1200 feet AGL
broken clouds at 2000 feet AGL
Weather: no significant weather observed at this time

METAR text: BGGH 181750Z 20008KT 9999 FEW005 SCT013 BKN020 09/07 Q1007
Conditions at: BGGH (GODTHAB (PORT) , GL) observed 1750 UTC 18 August 2019
Temperature: 9.0°C (48°F)
Dewpoint: 7.0°C (45°F) [RH = 87%]
Pressure (altimeter): 29.73 inches Hg (1007.0 mb)
Winds: from the SSW (200 degrees) at 9 MPH (8 knots; 4.1 m/s)
Visibility: 6 or more miles (10+ km)
Ceiling: 2000 feet AGL
Clouds: few clouds at 500 feet AGL
scattered clouds at 1300 feet AGL
broken clouds at 2000 feet AGL
Weather: no significant weather observed at this time

METAR text: BGGH 181650Z 20009KT 9999 FEW003 SCT013 BKN020 10/07 Q1006
Conditions at: BGGH (GODTHAB (PORT) , GL) observed 1650 UTC 18 August 2019
Temperature: 10.0°C (50°F)
Dewpoint: 7.0°C (45°F) [RH = 82%]
Pressure (altimeter): 29.70 inches Hg (1006.0 mb)
Winds: from the SSW (200 degrees) at 10 MPH (9 knots; 4.6 m/s)
Visibility: 6 or more miles (10+ km)
Ceiling: 2000 feet AGL
Clouds: few clouds at 300 feet AGL
scattered clouds at 1300 feet AGL
broken clouds at 2000 feet AGL
Weather: no significant weather observed at this time

METAR text: BGGH 181550Z 19009KT 9999 FEW002 BKN013 BKN040 10/07 Q1006
Conditions at: BGGH (GODTHAB (PORT) , GL) observed 1550 UTC 18 August 2019
Temperature: 10.0°C (50°F)
Dewpoint: 7.0°C (45°F) [RH = 82%]
Pressure (altimeter): 29.70 inches Hg (1006.0 mb)
Winds: from the S (190 degrees) at 10 MPH (9 knots; 4.6 m/s)
Visibility: 6 or more miles (10+ km)
Ceiling: 1300 feet AGL
Clouds: few clouds at 200 feet AGL
broken clouds at 1300 feet AGL
broken clouds at 4000 feet AGL
Weather: no significant weather observed at this time

METAR text: BGGH 181450Z 21006KT 180V250 8000 1500N VCFG BKN002 BKN006 08/07 Q1006
Conditions at: BGGH (GODTHAB (PORT) , GL) observed 1450 UTC 18 August 2019
Temperature: 8.0°C (46°F)
Dewpoint: 7.0°C (45°F) [RH = 93%]
Pressure (altimeter): 29.70 inches Hg (1006.0 mb)
Winds: from the SSW (210 degrees) at 7 MPH (6 knots; 3.1 m/s)
Visibility: 5 miles ( 8 km)
Ceiling: 200 feet AGL
Clouds: broken clouds at 200 feet AGL
broken clouds at 600 feet AGL
Weather: VCFG  (fog in vicinity)

METAR text: BGGH 181350Z 21008KT 3000 BCFG BKN003 BKN045 09/08 Q1005
Conditions at: BGGH (GODTHAB (PORT) , GL) observed 1350 UTC 18 August 2019
Temperature: 9.0°C (48°F)
Dewpoint: 8.0°C (46°F) [RH = 93%]
Pressure (altimeter): 29.68 inches Hg (1005.0 mb)
Winds: from the SSW (210 degrees) at 9 MPH (8 knots; 4.1 m/s)
Visibility: 1.86 miles (2.99 km)
Ceiling: 300 feet AGL
Clouds: broken clouds at 300 feet AGL
broken clouds at 4500 feet AGL
Weather: BCFG  (patches of fog)

METAR text: BGGH 181250Z 20010KT 9999 FEW004 SCT045 BKN075 08/08 Q1005
Conditions at: BGGH (GODTHAB (PORT) , GL) observed 1250 UTC 18 August 2019
Temperature: 8.0°C (46°F)
Dewpoint: 8.0°C (46°F) [RH = 100%]
Pressure (altimeter): 29.68 inches Hg (1005.0 mb)
Winds: from the SSW (200 degrees) at 12 MPH (10 knots; 5.1 m/s)
Visibility: 6 or more miles (10+ km)
Ceiling: 7500 feet AGL
Clouds: few clouds at 400 feet AGL
scattered clouds at 4500 feet AGL
broken clouds at 7500 feet AGL
Weather: no significant weather observed at this time

METAR text: BGGH 181150Z 20008KT 9999 FEW004 SCT030 BKN050 BKN075 08/08 Q1004
Conditions at: BGGH (GODTHAB (PORT) , GL) observed 1150 UTC 18 August 2019
Temperature: 8.0°C (46°F)
Dewpoint: 8.0°C (46°F) [RH = 100%]
Pressure (altimeter): 29.65 inches Hg (1004.0 mb)
Winds: from the SSW (200 degrees) at 9 MPH (8 knots; 4.1 m/s)
Visibility: 6 or more miles (10+ km)
Ceiling: 5000 feet AGL
Clouds: few clouds at 400 feet AGL
scattered clouds at 3000 feet AGL
broken clouds at 5000 feet AGL
broken clouds at 7500 feet AGL
Weather: no significant weather observed at this time

METAR text: BGGH 181050Z 23005KT 190V300 9999 FEW004 SCT015 BKN025 BKN050 08/08 Q1004
Conditions at: BGGH (GODTHAB (PORT) , GL) observed 1050 UTC 18 August 2019
Temperature: 8.0°C (46°F)
Dewpoint: 8.0°C (46°F) [RH = 100%]
Pressure (altimeter): 29.65 inches Hg (1004.0 mb)
Winds: from the SW (230 degrees) at 6 MPH (5 knots; 2.6 m/s)
Visibility: 6 or more miles (10+ km)
Ceiling: 2500 feet AGL
Clouds: few clouds at 400 feet AGL
scattered clouds at 1500 feet AGL
broken clouds at 2500 feet AGL
broken clouds at 5000 feet AGL
Weather: no significant weather observed at this time

METAR text: BGGH 180950Z 20002KT 9999 FEW004 BKN015 BKN030 08/08 Q1004
Conditions at: BGGH (GODTHAB (PORT) , GL) observed 0950 UTC 18 August 2019
Temperature: 8.0°C (46°F)
Dewpoint: 8.0°C (46°F) [RH = 100%]
Pressure (altimeter): 29.65 inches Hg (1004.0 mb)
Winds: from the SSW (200 degrees) at 2 MPH (2 knots; 1.0 m/s)
Visibility: 6 or more miles (10+ km)
Ceiling: 1500 feet AGL
Clouds: few clouds at 400 feet AGL
broken clouds at 1500 feet AGL
broken clouds at 3000 feet AGL
Weather: no significant weather observed at this time

METAR text: BGGH 180850Z 19005KT 9999 FEW005 BKN009 BKN050 08/07 Q1004
Conditions at: BGGH (GODTHAB (PORT) , GL) observed 0850 UTC 18 August 2019
Temperature: 8.0°C (46°F)
Dewpoint: 7.0°C (45°F) [RH = 93%]
Pressure (altimeter): 29.65 inches Hg (1004.0 mb)
Winds: from the S (190 degrees) at 6 MPH (5 knots; 2.6 m/s)
Visibility: 6 or more miles (10+ km)
Ceiling: 900 feet AGL
Clouds: few clouds at 500 feet AGL
broken clouds at 900 feet AGL
broken clouds at 5000 feet AGL
Weather: no significant weather observed at this time

METAR text: BGGH 180750Z AUTO VRB02KT 9999NDV BKN005/// BKN049/// 08/07 Q1004
Conditions at: BGGH (GODTHAB (PORT) , GL) observed 0750 UTC 18 August 2019
Temperature: 8.0°C (46°F)
Dewpoint: 7.0°C (45°F) [RH = 93%]
Pressure (altimeter): 29.65 inches Hg (1004.0 mb)
Winds: variable direction winds at 2 MPH (2 knots; 1.0 m/s)
Visibility: missing
Ceiling: 500 feet AGL
Clouds: broken clouds at 500 feet AGL
broken clouds at 4900 feet AGL
Weather: no significant weather observed at this time

METAR text: BGGH 180650Z AUTO 25001KT 9999NDV SCT005/// BKN031/// 08/07 Q1003
Conditions at: BGGH (GODTHAB (PORT) , GL) observed 0650 UTC 18 August 2019
Temperature: 8.0°C (46°F)
Dewpoint: 7.0°C (45°F) [RH = 93%]
Pressure (altimeter): 29.62 inches Hg (1003.0 mb)
Winds: from the WSW (250 degrees) at 1 MPH (1 knots; 0.5 m/s)
Visibility: missing
Ceiling: 3100 feet AGL
Clouds: scattered clouds at 500 feet AGL
broken clouds at 3100 feet AGL
Weather: no significant weather observed at this time

METAR text: BGGH 180550Z AUTO VRB04KT 9999NDV FEW018/// BKN046/// 08/07 Q1003
Conditions at: BGGH (GODTHAB (PORT) , GL) observed 0550 UTC 18 August 2019
Temperature: 8.0°C (46°F)
Dewpoint: 7.0°C (45°F) [RH = 93%]
Pressure (altimeter): 29.62 inches Hg (1003.0 mb)
Winds: variable direction winds at 5 MPH (4 knots; 2.1 m/s)
Visibility: missing
Ceiling: 4600 feet AGL
Clouds: few clouds at 1800 feet AGL
broken clouds at 4600 feet AGL
Weather: no significant weather observed at this time

METAR text: BGGH 180450Z AUTO 05003KT 9999NDV FEW007/// OVC035/// 08/08 Q1003
Conditions at: BGGH (GODTHAB (PORT) , GL) observed 0450 UTC 18 August 2019
Temperature: 8.0°C (46°F)
Dewpoint: 8.0°C (46°F) [RH = 100%]
Pressure (altimeter): 29.62 inches Hg (1003.0 mb)
Winds: from the NE (50 degrees) at 3 MPH (3 knots; 1.5 m/s)
Visibility: missing
Ceiling: 3500 feet AGL
Clouds: few clouds at 700 feet AGL
overcast cloud deck at 3500 feet AGL
Weather: no significant weather observed at this time

METAR text: BGGH 180350Z AUTO 19001KT 9999NDV BKN007/// BKN038/// 08/07 Q1004
Conditions at: BGGH (GODTHAB (PORT) , GL) observed 0350 UTC 18 August 2019
Temperature: 8.0°C (46°F)
Dewpoint: 7.0°C (45°F) [RH = 93%]
Pressure (altimeter): 29.65 inches Hg (1004.0 mb)
Winds: from the S (190 degrees) at 1 MPH (1 knots; 0.5 m/s)
Visibility: missing
Ceiling: 700 feet AGL
Clouds: broken clouds at 700 feet AGL
broken clouds at 3800 feet AGL
Weather: no significant weather observed at this time

METAR text: BGGH 180250Z AUTO 26002KT 9999NDV OVC002/// 08/08 Q1004
Conditions at: BGGH (GODTHAB (PORT) , GL) observed 0250 UTC 18 August 2019
Temperature: 8.0°C (46°F)
Dewpoint: 8.0°C (46°F) [RH = 100%]
Pressure (altimeter): 29.65 inches Hg (1004.0 mb)
Winds: from the W (260 degrees) at 2 MPH (2 knots; 1.0 m/s)
Visibility: missing
Ceiling: 200 feet AGL
Clouds: overcast cloud deck at 200 feet AGL
Weather: no significant weather observed at this time

METAR text: BGGH 180150Z AUTO VRB02KT 9999NDV -SN BKN002/// BKN092/// 08/08 Q1004
Conditions at: BGGH (GODTHAB (PORT) , GL) observed 0150 UTC 18 August 2019
Temperature: 8.0°C (46°F)
Dewpoint: 8.0°C (46°F) [RH = 100%]
Pressure (altimeter): 29.65 inches Hg (1004.0 mb)
Winds: variable direction winds at 2 MPH (2 knots; 1.0 m/s)
Visibility: missing
Ceiling: 200 feet AGL
Clouds: broken clouds at 200 feet AGL
broken clouds at 9200 feet AGL
Weather: -SN  (light snow)

METAR text: BGGH 180050Z AUTO 18008KT 6000NDV -SN FEW005/// BKN037/// 08/08 Q1005
Conditions at: BGGH (GODTHAB (PORT) , GL) observed 0050 UTC 18 August 2019
Temperature: 8.0°C (46°F)
Dewpoint: 8.0°C (46°F) [RH = 100%]
Pressure (altimeter): 29.68 inches Hg (1005.0 mb)
Winds: from the S (180 degrees) at 9 MPH (8 knots; 4.1 m/s)
Visibility: missing
Ceiling: 3700 feet AGL
Clouds: few clouds at 500 feet AGL
broken clouds at 3700 feet AGL
Weather: -SN  (light snow)

METAR text: BGGH 172350Z 19009KT 5000 1000S -RA BCFG FEW001 BKN015 BKN045 09/07 Q1005
Conditions at: BGGH (GODTHAB (PORT) , GL) observed 2350 UTC 17 August 2019
Temperature: 9.0°C (48°F)
Dewpoint: 7.0°C (45°F) [RH = 87%]
Pressure (altimeter): 29.68 inches Hg (1005.0 mb)
Winds: from the S (190 degrees) at 10 MPH (9 knots; 4.6 m/s)
Visibility: 3 miles ( 5 km)
Ceiling: 1500 feet AGL
Clouds: few clouds at 100 feet AGL
broken clouds at 1500 feet AGL
broken clouds at 4500 feet AGL
Weather: BCFG -RA  (patches of fog, light rain)

METAR text: BGGH 172250Z 14007KT 8000 1500N -RA VCFG FEW004 SCT015 BKN023 09/08 Q1005
Conditions at: BGGH (GODTHAB (PORT) , GL) observed 2250 UTC 17 August 2019
Temperature: 9.0°C (48°F)
Dewpoint: 8.0°C (46°F) [RH = 93%]
Pressure (altimeter): 29.68 inches Hg (1005.0 mb)
Winds: from the SE (140 degrees) at 8 MPH (7 knots; 3.6 m/s)
Visibility: 5 miles ( 8 km)
Ceiling: 2300 feet AGL
Clouds: few clouds at 400 feet AGL
scattered clouds at 1500 feet AGL
broken clouds at 2300 feet AGL
Weather: VCFG -RA  (fog in vicinity, light rain)

METAR text: BGGH 172150Z 19011KT 7000 -RA FEW003 SCT015 BKN040 07/07 Q1005
Conditions at: BGGH (GODTHAB (PORT) , GL) observed 2150 UTC 17 August 2019
Temperature: 7.0°C (45°F)
Dewpoint: 7.0°C (45°F) [RH = 100%]
Pressure (altimeter): 29.68 inches Hg (1005.0 mb)
Winds: from the S (190 degrees) at 13 MPH (11 knots; 5.7 m/s)
Visibility: 4 miles ( 7 km)
Ceiling: 4000 feet AGL
Clouds: few clouds at 300 feet AGL
scattered clouds at 1500 feet AGL
broken clouds at 4000 feet AGL
Weather: -RA  (light rain)

METAR text: BGGH 172050Z 20011KT 6000 -RA VCFG SCT003 BKN008 BKN015 08/07 Q1006
Conditions at: BGGH (GODTHAB (PORT) , GL) observed 2050 UTC 17 August 2019
Temperature: 8.0°C (46°F)
Dewpoint: 7.0°C (45°F) [RH = 93%]
Pressure (altimeter): 29.70 inches Hg (1006.0 mb)
Winds: from the SSW (200 degrees) at 13 MPH (11 knots; 5.7 m/s)
Visibility: 4 miles ( 6 km)
Ceiling: 800 feet AGL
Clouds: scattered clouds at 300 feet AGL
broken clouds at 800 feet AGL
broken clouds at 1500 feet AGL
Weather: -RA VCFG  (light rain, fog in vicinity)

METAR text: BGGH 171950Z 20004KT 0500 -RADZ FG VV003 08/07 Q1006
Conditions at: BGGH (GODTHAB (PORT) , GL) observed 1950 UTC 17 August 2019
Temperature: 8.0°C (46°F)
Dewpoint: 7.0°C (45°F) [RH = 93%]
Pressure (altimeter): 29.70 inches Hg (1006.0 mb)
Winds: from the SSW (200 degrees) at 5 MPH (4 knots; 2.1 m/s)
Visibility: 0.31 miles (0.50 km)
Ceiling: indefinite ceiling with vertical visibility of 300 feet AGL
Clouds: obscured sky
Weather: -RA -DZ FG  (light rain, light drizzle, fog)

METAR text: BGGH 171850Z 00000KT 5000 -RA VCFG FEW004 BKN030 OVC045 08/07 Q1006
Conditions at: BGGH (GODTHAB (PORT) , GL) observed 1850 UTC 17 August 2019
Temperature: 8.0°C (46°F)
Dewpoint: 7.0°C (45°F) [RH = 93%]
Pressure (altimeter): 29.70 inches Hg (1006.0 mb)
Winds: calm
Visibility: 3 miles ( 5 km)
Ceiling: 3000 feet AGL
Clouds: few clouds at 400 feet AGL
broken clouds at 3000 feet AGL
overcast cloud deck at 4500 feet AGL
Weather: -RA VCFG  (light rain, fog in vicinity)

METAR text: BGGH 171750Z 19004KT 4000 -DZRA BR SCT004 BKN030 OVC060 08/07 Q1006
Conditions at: BGGH (GODTHAB (PORT) , GL) observed 1750 UTC 17 August 2019
Temperature: 8.0°C (46°F)
Dewpoint: 7.0°C (45°F) [RH = 93%]
Pressure (altimeter): 29.70 inches Hg (1006.0 mb)
Winds: from the S (190 degrees) at 5 MPH (4 knots; 2.1 m/s)
Visibility: 2.49 miles (4.01 km)
Ceiling: 3000 feet AGL
Clouds: scattered clouds at 400 feet AGL
broken clouds at 3000 feet AGL
overcast cloud deck at 6000 feet AGL
Weather: -DZ -RA BR  (light drizzle, light rain, mist)

METAR text: BGGH 171650Z 28002KT 9999 -RA VCFG FEW003 BKN035 OVC060 08/07 Q1007
Conditions at: BGGH (GODTHAB (PORT) , GL) observed 1650 UTC 17 August 2019
Temperature: 8.0°C (46°F)
Dewpoint: 7.0°C (45°F) [RH = 93%]
Pressure (altimeter): 29.73 inches Hg (1007.0 mb)
Winds: from the W (280 degrees) at 2 MPH (2 knots; 1.0 m/s)
Visibility: 6 or more miles (10+ km)
Ceiling: 3500 feet AGL
Clouds: few clouds at 300 feet AGL
broken clouds at 3500 feet AGL
overcast cloud deck at 6000 feet AGL
Weather: -RA VCFG  (light rain, fog in vicinity)

METAR text: BGGH 171550Z 21003KT 9999 -RA VCFG FEW005 BKN038 OVC060 09/07 Q1007
Conditions at: BGGH (GODTHAB (PORT) , GL) observed 1550 UTC 17 August 2019
Temperature: 9.0°C (48°F)
Dewpoint: 7.0°C (45°F) [RH = 87%]
Pressure (altimeter): 29.73 inches Hg (1007.0 mb)
Winds: from the SSW (210 degrees) at 3 MPH (3 knots; 1.5 m/s)
Visibility: 6 or more miles (10+ km)
Ceiling: 3800 feet AGL
Clouds: few clouds at 500 feet AGL
broken clouds at 3800 feet AGL
overcast cloud deck at 6000 feet AGL
Weather: -RA VCFG  (light rain, fog in vicinity)

METAR text: BGGH 171450Z 35007KT 9999 -RA BKN038 OVC060 08/07 Q1008
Conditions at: BGGH (GODTHAB (PORT) , GL) observed 1450 UTC 17 August 2019
Temperature: 8.0°C (46°F)
Dewpoint: 7.0°C (45°F) [RH = 93%]
Pressure (altimeter): 29.76 inches Hg (1008.0 mb)
Winds: from the N (350 degrees) at 8 MPH (7 knots; 3.6 m/s)
Visibility: 6 or more miles (10+ km)
Ceiling: 3800 feet AGL
Clouds: broken clouds at 3800 feet AGL
overcast cloud deck at 6000 feet AGL
Weather: -RA  (light rain)

METAR text: BGGH 171350Z VRB03KT 9999 -RA OVC038 10/07 Q1008
Conditions at: BGGH (GODTHAB (PORT) , GL) observed 1350 UTC 17 August 2019
Temperature: 10.0°C (50°F)
Dewpoint: 7.0°C (45°F) [RH = 82%]
Pressure (altimeter): 29.76 inches Hg (1008.0 mb)
Winds: variable direction winds at 3 MPH (3 knots; 1.5 m/s)
Visibility: 6 or more miles (10+ km)
Ceiling: 3800 feet AGL
Clouds: overcast cloud deck at 3800 feet AGL
Weather: -RA  (light rain)

METAR text: BGGH 171250Z 05008KT 030V120 9999 OVC040 09/07 Q1009
Conditions at: BGGH (GODTHAB (PORT) , GL) observed 1250 UTC 17 August 2019
Temperature: 9.0°C (48°F)
Dewpoint: 7.0°C (45°F) [RH = 87%]
Pressure (altimeter): 29.79 inches Hg (1009.0 mb)
Winds: from the NE (50 degrees) at 9 MPH (8 knots; 4.1 m/s)
Visibility: 6 or more miles (10+ km)
Ceiling: 4000 feet AGL
Clouds: overcast cloud deck at 4000 feet AGL
Weather: no significant weather observed at this time

METAR text: BGGH 171150Z 03004KT 320V070 9999 OVC038 09/07 Q1009
Conditions at: BGGH (GODTHAB (PORT) , GL) observed 1150 UTC 17 August 2019
Temperature: 9.0°C (48°F)
Dewpoint: 7.0°C (45°F) [RH = 87%]
Pressure (altimeter): 29.79 inches Hg (1009.0 mb)
Winds: from the NNE (30 degrees) at 5 MPH (4 knots; 2.1 m/s)
Visibility: 6 or more miles (10+ km)
Ceiling: 3800 feet AGL
Clouds: overcast cloud deck at 3800 feet AGL
Weather: no significant weather observed at this time

Forecast for: BGGH (GODTHAB (PORT) , GL)
Text: TAF BGGH 182011Z 1821/1901 20008KT 9999 FEW003 SCT020
Forecast period: 2100 to 2200 UTC 18 August 2019
Forecast type: FROM: standard forecast or significant change
Winds: from the SSW (200 degrees) at 9 MPH (8 knots; 4.1 m/s)
Visibility: 6 or more miles 10+ km)
Ceiling: at least 12,000 feet AGL
Clouds: few clouds at 300 feet AGL
scattered clouds at 2000 feet AGL
Weather: no significant weather forecast for this period
Text: TEMPO 1821/1822 2500 BCFG BKN006
Forecast period: 2100 to 2200 UTC 18 August 2019
Forecast type: TEMPORARY: The following changes expected for less than half the time period
Visibility: 1.55 miles (2.49 km)
Ceiling: 600 feet AGL
Clouds: broken clouds at 600 feet AGL
Weather: BCFG  (patches of fog)
Text: BECMG 1822/1824 0400 FG -DZ BKN002
Forecast period: 2200 UTC 18 August 2019 to 0100 UTC 19 August 2019
Forecast type: BECOMING: Conditions expected to become as follows by 0000 UTC 19 August 2019
Winds: from the SSW (200 degrees) at 9 MPH (8 knots; 4.1 m/s)
Visibility: 0.25 miles (0.40 km)
Ceiling: 200 feet AGL
Clouds: broken clouds at 200 feet AGL
Weather: FG -DZ  (fog, light drizzle)
Text: TEMPO 1900/1901 2500 BCFG SCT002
Forecast period: 0000 to 0100 UTC 19 August 2019
Forecast type: TEMPORARY: The following changes expected for less than half the time period
Visibility: 1.55 miles (2.49 km)
Ceiling: at least 12,000 feet AGL
Clouds: scattered clouds at 200 feet AGL
Weather: BCFG  (patches of fog)